createdAt,value
2023-04-25T00:02:07.904Z,95953.00
2023-04-25T00:04:36.266Z,95962.94
2023-04-25T00:07:06.401Z,95953.69
2023-04-25T00:09:34.725Z,95956.75
2023-04-25T00:12:03.012Z,95953.91
2023-04-25T00:14:34.587Z,95968.22
2023-04-25T00:17:03.637Z,95965.81
2023-04-25T00:19:31.706Z,95963.88
2023-04-25T00:21:59.963Z,95966.72
2023-04-25T00:24:29.489Z,95969.13
2023-04-25T00:26:57.533Z,95964.69
2023-04-25T00:29:25.764Z,95959.06
2023-04-25T00:31:53.886Z,95956.66
2023-04-25T00:34:21.959Z,95951.03
2023-04-25T00:36:50.098Z,95959.38
2023-04-25T00:39:18.140Z,95958.69
2023-04-25T00:41:48.007Z,95954.31
2023-04-25T00:44:18.096Z,95948.47
2023-04-25T00:46:46.671Z,95943.22
2023-04-25T00:49:16.520Z,95941.38
2023-04-25T00:51:46.075Z,95944.84
2023-04-25T00:54:15.401Z,95941.38
2023-04-25T00:56:44.107Z,95943.00
2023-04-25T00:59:14.507Z,95935.31
2023-04-25T01:01:45.267Z,95931.41
2023-04-25T01:04:13.856Z,95939.09
2023-04-25T01:06:42.632Z,95931.78
2023-04-25T01:09:11.551Z,95944.25
2023-04-25T01:11:41.195Z,95937.94
2023-04-25T01:14:09.428Z,95932.00
2023-04-25T01:16:39.126Z,95928.91
2023-04-25T01:19:11.965Z,95922.47
2023-04-25T01:21:41.715Z,95925.25
2023-04-25T01:24:10.536Z,95923.53
2023-04-25T01:26:39.409Z,95922.97
2023-04-25T01:29:08.292Z,95921.47
2023-04-25T01:31:38.141Z,95915.28
2023-04-25T01:34:07.333Z,95917.69
2023-04-25T01:36:36.314Z,95920.22
2023-04-25T01:39:05.942Z,95924.44
2023-04-25T01:41:35.463Z,95917.22
2023-04-25T01:44:04.645Z,95924.66
2023-04-25T01:46:32.810Z,95922.69
2023-04-25T01:49:01.259Z,95927.06
2023-04-25T01:51:29.695Z,95924.66
2023-04-25T01:54:01.013Z,95929.53
2023-04-25T01:56:34.629Z,95925.31
2023-04-25T01:59:05.260Z,95924.50
2023-04-25T02:02:05.780Z,95922.41
2023-04-25T02:04:35.591Z,95914.88
2023-04-25T02:07:05.973Z,95921.41
2023-04-25T02:09:48.967Z,95919.22
2023-04-25T02:12:20.069Z,95914.78
2023-04-25T02:14:57.177Z,95912.69
2023-04-25T02:17:37.250Z,95917.31
2023-04-25T02:20:07.136Z,95913.09
2023-04-25T02:22:36.393Z,95913.97
2023-04-25T02:25:09.519Z,95915.44
2023-04-25T02:27:39.872Z,95909.03
2023-04-25T02:30:10.772Z,95908.47
2023-04-25T02:32:38.918Z,95907.41
2023-04-25T02:35:32.158Z,95894.19
2023-04-25T02:38:00.335Z,95899.59
2023-04-25T02:40:28.574Z,95899.53
2023-04-25T02:42:57.939Z,95905.19
2023-04-25T02:45:28.214Z,95902.72
2023-04-25T02:47:57.244Z,95906.22
2023-04-25T02:50:25.506Z,95902.06
2023-04-25T02:52:53.597Z,95903.91
2023-04-25T02:55:28.500Z,95908.78
2023-04-25T02:57:59.658Z,95907.09
2023-04-25T03:00:39.661Z,95900.25
2023-04-25T03:03:07.897Z,95900.69
2023-04-25T03:05:36.253Z,95895.97
2023-04-25T03:08:04.826Z,95897.81
2023-04-25T03:10:34.675Z,95890.69
2023-04-25T03:13:08.048Z,95883.75
2023-04-25T03:15:37.547Z,95876.19
2023-04-25T03:18:05.959Z,95879.25
2023-04-25T03:20:34.040Z,95885.66
2023-04-25T03:23:02.086Z,95888.16
2023-04-25T03:25:31.481Z,95885.09
2023-04-25T03:27:59.939Z,95880.41
2023-04-25T03:30:29.779Z,95877.66
2023-04-25T03:32:57.972Z,95880.63
2023-04-25T03:35:26.242Z,95883.03
2023-04-25T03:37:54.753Z,95889.94
2023-04-25T03:40:28.208Z,95881.13
2023-04-25T03:43:10.602Z,95884.41
2023-04-25T03:45:41.205Z,95881.13
2023-04-25T03:48:09.392Z,95886.97
2023-04-25T03:50:37.618Z,95872.22
2023-04-25T03:53:06.486Z,95882.72
2023-04-25T03:55:52.125Z,95874.84
2023-04-25T03:58:20.360Z,95883.19
2023-04-25T04:00:51.142Z,95879.63
2023-04-25T04:03:19.610Z,95877.78
2023-04-25T04:05:48.563Z,95877.53
2023-04-25T04:08:16.614Z,95881.19
2023-04-25T04:10:44.701Z,95871.09
2023-04-25T04:13:13.293Z,95869.34
2023-04-25T04:15:41.413Z,95878.78
2023-04-25T04:18:11.824Z,95877.03
2023-04-25T04:20:40.094Z,95880.03
2023-04-25T04:23:08.929Z,95883.00
2023-04-25T04:25:37.678Z,95885.41
2023-04-25T04:28:12.007Z,95886.66
2023-04-25T04:30:47.983Z,95896.16
2023-04-25T04:33:17.445Z,95888.81
2023-04-25T04:35:49.551Z,95889.41
2023-04-25T04:38:19.530Z,95898.03
2023-04-25T04:40:48.700Z,95897.56
2023-04-25T04:43:37.631Z,95903.72
2023-04-25T04:46:41.888Z,95904.28
2023-04-25T04:49:23.445Z,95907.41
2023-04-25T04:52:17.891Z,95910.50
2023-04-25T04:55:03.196Z,95914.50
2023-04-25T04:57:43.474Z,95909.25
2023-04-25T05:00:16.600Z,95915.22
2023-04-25T05:02:47.459Z,95918.78
2023-04-25T05:05:40.820Z,95915.13
2023-04-25T05:08:35.105Z,95923.47
2023-04-25T05:11:26.152Z,95927.28
2023-04-25T05:14:12.859Z,95916.81
2023-04-25T05:16:59.683Z,95919.38
2023-04-25T05:19:40.348Z,95911.88
2023-04-25T05:22:19.687Z,95918.34
2023-04-25T05:25:10.697Z,95922.31
2023-04-25T05:27:53.537Z,95916.91
2023-04-25T05:31:00.179Z,95920.88
2023-04-25T05:33:38.372Z,95918.84
2023-04-25T05:36:08.031Z,95921.31
2023-04-25T05:38:37.658Z,95915.84
2023-04-25T05:41:24.028Z,95918.69
2023-04-25T05:44:13.710Z,95921.63
2023-04-25T05:47:05.957Z,95930.09
2023-04-25T05:49:52.675Z,95920.63
2023-04-25T05:52:28.760Z,95930.31
2023-04-25T05:55:09.058Z,95928.94
2023-04-25T05:57:37.481Z,95923.09
2023-04-25T06:00:10.257Z,95921.47
2023-04-25T06:02:41.842Z,95927.19
2023-04-25T06:05:11.947Z,95923.75
2023-04-25T06:07:40.450Z,95929.16
2023-04-25T06:10:12.744Z,95931.78
2023-04-25T06:12:40.815Z,95930.97
2023-04-25T06:15:24.407Z,95924.72
2023-04-25T06:17:56.382Z,95925.06
2023-04-25T06:20:25.552Z,95928.03
2023-04-25T06:22:55.476Z,95932.72
2023-04-25T06:25:33.164Z,95930.44
2023-04-25T06:28:01.699Z,95933.22
2023-04-25T06:30:31.950Z,95922.25
2023-04-25T06:33:05.908Z,95930.38
2023-04-25T06:35:34.666Z,95920.75
2023-04-25T06:38:02.996Z,95924.97
2023-04-25T06:40:33.922Z,95928.41
2023-04-25T06:43:02.122Z,95931.25
2023-04-25T06:45:48.794Z,95929.66
2023-04-25T06:48:17.459Z,95924.41
2023-04-25T06:50:45.843Z,95922.84
2023-04-25T06:53:14.534Z,95931.41
2023-04-25T06:55:46.771Z,95924.03
2023-04-25T06:58:19.209Z,95920.44
2023-04-25T07:00:56.284Z,95921.78
2023-04-25T07:03:26.731Z,95925.78
2023-04-25T07:05:59.768Z,95932.03
2023-04-25T07:08:27.944Z,95931.78
2023-04-25T07:10:57.486Z,95927.91
2023-04-25T07:13:25.693Z,95936.22
2023-04-25T07:15:56.022Z,95929.72
2023-04-25T07:18:25.475Z,95930.75
2023-04-25T07:20:53.935Z,95934.69
2023-04-25T07:23:22.388Z,95939.38
2023-04-25T07:25:50.549Z,95937.78
2023-04-25T07:28:24.187Z,95942.22
2023-04-25T07:30:52.250Z,95942.25
2023-04-25T07:33:21.462Z,95944.53
2023-04-25T07:35:49.829Z,95945.56
2023-04-25T07:38:18.860Z,95948.28
2023-04-25T07:40:47.189Z,95949.44
2023-04-25T07:43:17.557Z,95956.31
2023-04-25T07:45:58.048Z,95948.19
2023-04-25T07:48:28.677Z,95960.19
2023-04-25T07:50:58.344Z,95962.50
2023-04-25T07:53:26.859Z,95965.88
2023-04-25T07:56:00.200Z,95964.09
2023-04-25T07:58:30.508Z,95968.81
2023-04-25T08:01:03.346Z,95976.91
2023-04-25T08:03:48.571Z,95984.56
2023-04-25T08:06:23.598Z,95984.09
2023-04-25T08:09:12.623Z,95977.47
2023-04-25T08:11:43.950Z,95988.22
2023-04-25T08:14:14.793Z,95986.38
2023-04-25T08:16:46.229Z,95986.75
2023-04-25T08:19:40.945Z,96006.47
2023-04-25T08:22:14.201Z,96001.56
2023-04-25T08:24:56.706Z,96002.94
2023-04-25T08:27:25.060Z,96007.44
2023-04-25T08:29:53.523Z,96004.19
2023-04-25T08:32:23.707Z,96015.53
2023-04-25T08:35:09.380Z,96017.94
2023-04-25T08:37:37.964Z,96020.78
2023-04-25T08:40:16.572Z,96026.00
2023-04-25T08:42:59.889Z,96026.25
2023-04-25T08:45:29.843Z,96025.38
2023-04-25T08:48:00.795Z,96038.31
2023-04-25T08:50:29.686Z,96036.34
2023-04-25T08:53:05.989Z,96050.50
2023-04-25T08:55:35.564Z,96039.25
2023-04-25T08:58:04.447Z,96049.72
2023-04-25T09:00:32.838Z,96053.13
2023-04-25T09:03:03.491Z,96058.78
2023-04-25T09:05:35.618Z,96064.47
2023-04-25T09:08:03.981Z,96055.50
2023-04-25T09:13:09.658Z,96069.09
2023-04-25T09:16:00.121Z,96066.16
2023-04-25T09:18:48.346Z,96078.13
2023-04-25T09:21:17.114Z,96075.28
2023-04-25T09:23:50.748Z,96091.13
2023-04-25T09:26:23.117Z,96084.84
2023-04-25T09:29:08.165Z,96090.97
2023-04-25T09:31:39.163Z,96089.78
2023-04-25T09:34:16.496Z,96096.06
2023-04-25T09:36:49.111Z,96102.28
2023-04-25T09:39:43.006Z,96101.03
2023-04-25T09:42:16.537Z,96108.78
2023-04-25T09:44:46.361Z,96109.00
2023-04-25T09:47:17.461Z,96117.63
2023-04-25T09:49:47.950Z,96117.31
2023-04-25T09:52:18.822Z,96120.16
2023-04-25T09:55:10.281Z,96123.06
2023-04-25T09:57:40.672Z,96127.91
2023-04-25T10:00:13.892Z,96134.28
2023-04-25T10:02:47.783Z,96136.69
2023-04-25T10:05:36.682Z,96134.75
2023-04-25T10:08:06.010Z,96133.59
2023-04-25T10:10:37.232Z,96142.75
2023-04-25T10:13:07.573Z,96142.19
2023-04-25T10:15:40.154Z,96150.22
2023-04-25T10:18:24.215Z,96144.38
2023-04-25T10:20:54.487Z,96153.44
2023-04-25T10:23:22.883Z,96155.06
2023-04-25T10:25:52.946Z,96162.22
2023-04-25T10:28:21.738Z,96166.50
2023-04-25T10:31:09.245Z,96156.19
2023-04-25T10:33:39.666Z,96170.38
2023-04-25T10:36:14.148Z,96164.34
2023-04-25T10:38:44.421Z,96174.16
2023-04-25T10:41:14.524Z,96170.84
2023-04-25T10:43:45.317Z,96177.81
2023-04-25T10:46:21.706Z,96191.56
2023-04-25T10:48:52.192Z,96191.56
2023-04-25T10:51:29.535Z,96193.34
2023-04-25T10:54:03.970Z,96195.75
2023-04-25T10:56:33.662Z,96199.03
2023-04-25T10:59:11.089Z,96204.88
2023-04-25T11:01:43.308Z,96200.00
2023-04-25T11:04:32.802Z,96213.38
2023-04-25T11:07:24.437Z,96214.59
2023-04-25T11:09:52.748Z,96210.13
2023-04-25T11:12:21.008Z,96219.63
2023-04-25T11:14:49.098Z,96220.84
2023-04-25T11:17:17.301Z,96223.25
2023-04-25T11:19:45.496Z,96217.22
2023-04-25T11:22:14.996Z,96218.16
2023-04-25T11:24:43.797Z,96220.59
2023-04-25T11:27:12.029Z,96223.44
2023-04-25T11:29:40.237Z,96223.63
2023-04-25T11:32:08.512Z,96225.97
2023-04-25T11:34:36.949Z,96222.75
2023-04-25T11:37:07.086Z,96230.25
2023-04-25T11:39:36.825Z,96230.63
2023-04-25T11:42:14.018Z,96228.41
2023-04-25T11:44:42.666Z,96234.97
2023-04-25T11:47:10.853Z,96226.66
2023-04-25T11:49:39.122Z,96229.06
2023-04-25T11:52:09.216Z,96233.25
2023-04-25T11:54:39.526Z,96239.53
2023-04-25T11:57:07.673Z,96240.72
2023-04-25T11:59:35.793Z,96237.06
2023-04-25T12:02:03.932Z,96246.91
2023-04-25T12:04:34.176Z,96245.50
2023-04-25T12:07:03.292Z,96241.84
2023-04-25T12:09:34.224Z,96240.34
2023-04-25T12:12:04.687Z,96250.72
2023-04-25T12:14:34.983Z,96239.13
2023-04-25T12:17:05.295Z,96241.53
2023-04-25T12:19:36.090Z,96255.84
2023-04-25T12:22:05.794Z,96249.00
2023-04-25T12:27:34.638Z,96249.56
2023-04-25T12:30:04.369Z,96252.56
2023-04-25T12:32:32.565Z,96253.75
2023-04-25T12:35:00.963Z,96254.16
2023-04-25T12:37:30.946Z,96258.38
2023-04-25T12:39:59.033Z,96257.69
2023-04-25T12:42:27.176Z,96260.94
2023-04-25T12:44:56.624Z,96264.31
2023-04-25T12:47:24.841Z,96262.88
2023-04-25T12:49:52.913Z,96261.19
2023-04-25T12:52:21.010Z,96260.81
2023-04-25T12:54:49.152Z,96264.78
2023-04-25T12:57:17.200Z,96257.41
2023-04-25T12:59:45.381Z,96263.09
2023-04-25T13:02:15.118Z,96274.38
2023-04-25T13:04:43.231Z,96264.22
2023-04-25T13:07:11.577Z,96271.44
2023-04-25T13:09:39.649Z,96272.84
2023-04-25T13:12:08.509Z,96271.75
2023-04-25T13:14:36.603Z,96270.66
2023-04-25T13:17:05.700Z,96274.09
2023-04-25T13:19:35.308Z,96273.13
2023-04-25T13:22:05.164Z,96272.50
2023-04-25T13:24:33.485Z,96272.41
2023-04-25T13:27:02.399Z,96267.88
2023-04-25T13:29:30.532Z,96265.81
2023-04-25T13:31:58.693Z,96280.03
2023-04-25T13:34:29.522Z,96283.22
2023-04-25T13:37:04.998Z,96277.09
2023-04-25T13:39:33.362Z,96285.00
2023-04-25T13:42:01.626Z,96280.50
2023-04-25T13:44:29.802Z,96279.72
2023-04-25T13:46:58.015Z,96280.50
2023-04-25T13:49:26.248Z,96278.81
2023-04-25T13:51:54.321Z,96282.78
2023-04-25T13:54:24.133Z,96288.91
2023-04-25T13:56:52.892Z,96281.78
2023-04-25T13:59:20.947Z,96285.81
2023-04-25T14:01:49.144Z,96295.34
2023-04-25T14:04:17.321Z,96290.50
2023-04-25T14:06:45.941Z,96283.56
2023-04-25T14:09:14.293Z,96282.72
2023-04-25T14:11:43.718Z,96283.66
2023-04-25T14:14:13.062Z,96286.50
2023-04-25T14:16:41.300Z,96292.13
2023-04-25T14:19:09.509Z,96294.63
2023-04-25T14:21:37.825Z,96293.97
2023-04-25T14:24:07.409Z,96287.44
2023-04-25T14:26:36.477Z,96290.81
2023-04-25T14:29:07.069Z,96289.59
2023-04-25T14:31:35.770Z,96294.09
2023-04-25T14:34:04.610Z,96287.78
2023-04-25T14:36:33.131Z,96294.88
2023-04-25T14:39:01.951Z,96296.72
2023-04-25T14:41:30.103Z,96302.22
2023-04-25T14:43:58.588Z,96296.50
2023-04-25T14:46:28.340Z,96297.50
2023-04-25T14:48:57.316Z,96294.47
2023-04-25T14:51:25.515Z,96298.28
2023-04-25T14:53:54.010Z,96296.59
2023-04-25T14:56:22.363Z,96292.69
2023-04-25T14:58:50.794Z,96293.06
2023-04-25T15:01:21.570Z,96297.31
2023-04-25T15:03:52.312Z,96295.91
2023-04-25T15:06:20.738Z,96292.59
2023-04-25T15:08:48.815Z,96293.72
2023-04-25T15:11:16.999Z,96286.31
2023-04-25T15:13:46.156Z,96289.28
2023-04-25T15:16:15.192Z,96284.03
2023-04-25T15:18:43.449Z,96289.19
2023-04-25T15:21:12.978Z,96291.81
2023-04-25T15:23:41.383Z,96299.22
2023-04-25T15:26:10.327Z,96298.41
2023-04-25T15:28:38.528Z,96295.63
2023-04-25T15:31:07.014Z,96311.03
2023-04-25T15:33:36.160Z,96296.38
2023-04-25T15:36:05.062Z,96302.34
2023-04-25T15:38:34.438Z,96314.28
2023-04-25T15:41:03.787Z,96310.75
2023-04-25T15:43:32.873Z,96312.81
2023-04-25T15:46:01.391Z,96320.06
2023-04-25T15:48:29.545Z,96320.06
2023-04-25T15:50:57.701Z,96321.16
2023-04-25T15:53:25.955Z,96317.59
2023-04-25T15:55:55.625Z,96318.97
2023-04-25T15:58:23.896Z,96318.28
2023-04-25T16:00:52.031Z,96321.91
2023-04-25T16:03:20.350Z,96314.09
2023-04-25T16:05:49.140Z,96318.03
2023-04-25T16:08:18.074Z,96320.25
2023-04-25T16:10:46.236Z,96317.97
2023-04-25T16:13:15.727Z,96316.72
2023-04-25T16:15:43.855Z,96314.91
2023-04-25T16:18:12.093Z,96315.69
2023-04-25T16:20:40.382Z,96317.97
2023-04-25T16:23:08.468Z,96315.94
2023-04-25T16:25:36.577Z,96329.47
2023-04-25T16:28:04.832Z,96331.69
2023-04-25T16:30:34.338Z,96326.41
2023-04-25T16:33:02.573Z,96331.22
2023-04-25T16:35:32.453Z,96330.84
2023-04-25T16:38:00.714Z,96333.72
2023-04-25T16:40:28.828Z,96332.78
2023-04-25T16:42:57.220Z,96334.63
2023-04-25T16:45:26.244Z,96332.59
2023-04-25T16:47:55.863Z,96341.56
2023-04-25T16:50:24.021Z,96334.22
2023-04-25T16:52:52.246Z,96346.59
2023-04-25T16:55:20.758Z,96342.94
2023-04-25T16:57:48.817Z,96348.59
2023-04-25T17:00:18.654Z,96340.50
2023-04-25T17:02:47.284Z,96343.66
2023-04-25T17:05:17.062Z,96350.63
2023-04-25T17:07:45.229Z,96346.47
2023-04-25T17:10:13.341Z,96360.91
2023-04-25T17:12:41.468Z,96362.72
2023-04-25T17:15:11.271Z,96367.25
2023-04-25T17:17:39.577Z,96371.72
2023-04-25T17:20:09.915Z,96380.97
2023-04-25T17:22:44.314Z,96381.38
2023-04-25T17:25:19.919Z,96388.38
2023-04-25T17:27:48.095Z,96400.25
2023-04-25T17:33:10.208Z,96403.38
2023-04-25T17:35:38.361Z,96405.66
2023-04-25T17:38:08.002Z,96408.91
2023-04-25T17:40:36.687Z,96404.13
2023-04-25T17:43:04.856Z,96410.41
2023-04-25T17:45:34.803Z,96405.19
2023-04-25T17:48:03.714Z,96410.72
2023-04-25T17:50:32.589Z,96426.47
2023-04-25T17:53:03.200Z,96431.91
2023-04-25T17:55:32.603Z,96424.66
2023-04-25T17:58:00.856Z,96424.66
2023-04-25T18:00:30.091Z,96413.91
2023-04-25T18:02:58.584Z,96415.34
2023-04-25T18:05:27.858Z,96414.56
2023-04-25T18:07:57.523Z,96421.47
2023-04-25T18:10:25.874Z,96428.75
2023-04-25T18:12:55.304Z,96434.84
2023-04-25T18:15:23.533Z,96434.84
2023-04-25T18:17:52.279Z,96432.41
2023-04-25T18:20:21.607Z,96439.25
2023-04-25T18:22:49.677Z,96447.97
2023-04-25T18:25:18.271Z,96440.13
2023-04-25T18:27:46.741Z,96439.25
2023-04-25T18:30:16.230Z,96440.66
2023-04-25T18:32:44.485Z,96438.69
2023-04-25T18:35:12.602Z,96440.47
2023-04-25T18:37:42.319Z,96438.44
2023-04-25T18:40:14.265Z,96444.13
2023-04-25T18:42:43.051Z,96451.81
2023-04-25T18:45:12.675Z,96460.28
2023-04-25T18:47:43.979Z,96459.06
2023-04-25T18:50:12.862Z,96469.59
2023-04-25T18:52:42.245Z,96477.88
2023-04-25T18:55:11.283Z,96476.47
2023-04-25T18:57:40.232Z,96487.19
2023-04-25T19:00:11.268Z,96493.84
2023-04-25T19:02:39.732Z,96493.25
2023-04-25T19:05:11.113Z,96491.81
2023-04-25T19:07:40.476Z,96495.28
2023-04-25T19:10:09.964Z,96493.91
2023-04-25T19:12:38.009Z,96493.28
2023-04-25T19:15:09.740Z,96494.31
2023-04-25T19:17:37.892Z,96486.63
2023-04-25T19:20:09.396Z,96483.00
2023-04-25T19:22:37.520Z,96474.72
2023-04-25T19:25:10.772Z,96482.22
2023-04-25T19:27:39.503Z,96499.78
2023-04-25T19:30:10.715Z,96509.25
2023-04-25T19:32:39.461Z,96512.88
2023-04-25T19:35:11.789Z,96510.69
2023-04-25T19:37:45.903Z,96510.91
2023-04-25T19:40:18.116Z,96510.47
2023-04-25T19:42:46.431Z,96513.34
2023-04-25T19:45:14.483Z,96511.91
2023-04-25T19:47:43.776Z,96513.53
2023-04-25T19:50:13.929Z,96515.56
2023-04-25T19:52:42.188Z,96510.72
2023-04-25T19:55:11.339Z,96515.75
2023-04-25T19:57:39.491Z,96512.31
2023-04-25T20:00:11.952Z,96521.63
2023-04-25T20:02:41.150Z,96525.69
2023-04-25T20:05:10.722Z,96529.94
2023-04-25T20:07:40.556Z,96529.72
2023-04-25T20:10:13.293Z,96525.69
2023-04-25T20:12:42.314Z,96531.56
2023-04-25T20:15:12.122Z,96531.97
2023-04-25T20:17:41.638Z,96529.16
2023-04-25T20:20:11.592Z,96521.44
2023-04-25T20:22:41.138Z,96527.94
2023-04-25T20:25:12.245Z,96530.72
2023-04-25T20:27:40.616Z,96532.38
2023-04-25T20:30:12.051Z,96528.72
2023-04-25T20:32:40.395Z,96528.31
2023-04-25T20:35:10.220Z,96535.81
2023-04-25T20:37:39.709Z,96535.22
2023-04-25T20:40:10.118Z,96537.22
2023-04-25T20:42:38.364Z,96540.88
2023-04-25T20:45:12.904Z,96535.81
2023-04-25T20:47:42.738Z,96539.25
2023-04-25T20:50:12.155Z,96543.50
2023-04-25T20:52:41.632Z,96546.34
2023-04-25T20:55:11.811Z,96537.03
2023-04-25T20:57:39.916Z,96542.66
2023-04-25T21:00:16.672Z,96537.84
2023-04-25T21:02:45.145Z,96533.59
2023-04-25T21:05:13.586Z,96539.66
2023-04-25T21:07:44.476Z,96535.81
2023-04-25T21:10:12.919Z,96539.66
2023-04-25T21:12:41.126Z,96541.09
2023-04-25T21:15:16.714Z,96535.22
2023-04-25T21:17:47.260Z,96543.31
2023-04-25T21:20:17.745Z,96540.47
2023-04-25T21:22:51.788Z,96534.00
2023-04-25T21:25:31.100Z,96538.47
2023-04-25T21:28:02.089Z,96546.75
2023-04-25T21:30:30.766Z,96557.84
2023-04-25T21:32:58.812Z,96557.47
2023-04-25T21:35:26.886Z,96556.25
2023-04-25T21:37:56.242Z,96556.25
2023-04-25T21:40:24.459Z,96554.44
2023-04-25T21:42:53.528Z,96557.69
2023-04-25T21:45:22.360Z,96562.34
2023-04-25T21:47:51.046Z,96557.84
2023-04-25T21:50:19.729Z,96561.09
2023-04-25T21:52:48.168Z,96559.47
2023-04-25T21:55:19.630Z,96560.28
2023-04-25T21:57:47.817Z,96559.28
2023-04-25T22:00:24.532Z,96565.56
2023-04-25T22:02:53.630Z,96558.50
2023-04-25T22:05:22.536Z,96569.59
2023-04-25T22:07:52.991Z,96563.31
2023-04-25T22:10:23.115Z,96571.22
2023-04-25T22:12:51.475Z,96572.41
2023-04-25T22:15:21.447Z,96567.16
2023-04-25T22:17:49.582Z,96561.53
2023-04-25T22:20:23.054Z,96572.63
2023-04-25T22:22:51.222Z,96568.00
2023-04-25T22:25:19.579Z,96576.88
2023-04-25T22:27:49.337Z,96574.25
2023-04-25T22:30:18.309Z,96582.94
2023-04-25T22:32:46.431Z,96582.13
2023-04-25T22:35:14.594Z,96587.59
2023-04-25T22:37:42.869Z,96587.41
2023-04-25T22:40:12.120Z,96589.78
2023-04-25T22:42:41.076Z,96589.81
2023-04-25T22:45:12.429Z,96593.22
2023-04-25T22:47:41.725Z,96598.50
2023-04-25T22:50:14.720Z,96595.47
2023-04-25T22:52:43.034Z,96593.25
2023-04-25T22:55:12.103Z,96587.97
2023-04-25T22:57:41.419Z,96587.78
2023-04-25T23:00:19.618Z,96591.00
2023-04-25T23:02:47.991Z,96591.44
2023-04-25T23:05:16.545Z,96593.25
2023-04-25T23:07:45.020Z,96585.94
2023-04-25T23:10:14.190Z,96591.63
2023-04-25T23:12:42.734Z,96581.72
2023-04-25T23:15:13.428Z,96581.53
2023-04-25T23:17:42.105Z,96581.72
2023-04-25T23:20:12.087Z,96591.63
2023-04-25T23:22:40.515Z,96584.94
2023-04-25T23:25:10.415Z,96582.53
2023-04-25T23:27:38.530Z,96589.19
2023-04-25T23:30:09.076Z,96596.25
2023-04-25T23:32:38.785Z,96593.44
2023-04-25T23:35:08.114Z,96598.88
2023-04-25T23:37:37.057Z,96597.25
2023-04-25T23:40:09.770Z,96594.63
2023-04-25T23:42:38.512Z,96596.03
2023-04-25T23:45:10.133Z,96599.06
2023-04-25T23:47:39.696Z,96605.13
2023-04-25T23:50:09.544Z,96602.72
2023-04-25T23:52:37.877Z,96607.16
2023-04-25T23:55:07.261Z,96604.91
2023-04-25T23:57:35.400Z,96604.53
